sensor_id;sensor_type;location;lat;lon;timestamp;temperature;humidity
34985;DHT22;21190;58.750;17.004;2023-07-13T00:00:48;14.60;99.90
34985;DHT22;21190;58.750;17.004;2023-07-13T00:03:15;14.70;99.90
34985;DHT22;21190;58.750;17.004;2023-07-13T00:05:42;14.60;99.90
34985;DHT22;21190;58.750;17.004;2023-07-13T00:08:09;14.70;99.90
34985;DHT22;21190;58.750;17.004;2023-07-13T00:10:41;14.60;99.90
34985;DHT22;21190;58.750;17.004;2023-07-13T00:13:09;14.70;99.90
34985;DHT22;21190;58.750;17.004;2023-07-13T00:15:36;14.60;99.90
34985;DHT22;21190;58.750;17.004;2023-07-13T00:18:03;14.60;99.90
34985;DHT22;21190;58.750;17.004;2023-07-13T00:20:30;14.70;99.90
34985;DHT22;21190;58.750;17.004;2023-07-13T00:22:57;14.70;99.90
34985;DHT22;21190;58.750;17.004;2023-07-13T00:25:24;14.60;99.90
34985;DHT22;21190;58.750;17.004;2023-07-13T00:27:52;14.60;99.90
34985;DHT22;21190;58.750;17.004;2023-07-13T00:30:19;14.60;99.90
34985;DHT22;21190;58.750;17.004;2023-07-13T00:32:46;14.60;99.90
34985;DHT22;21190;58.750;17.004;2023-07-13T00:35:14;14.60;99.90
34985;DHT22;21190;58.750;17.004;2023-07-13T00:37:41;14.60;99.90
34985;DHT22;21190;58.750;17.004;2023-07-13T00:40:13;14.50;99.90
34985;DHT22;21190;58.750;17.004;2023-07-13T00:42:41;14.50;99.90
34985;DHT22;21190;58.750;17.004;2023-07-13T00:47:57;14.50;99.90
34985;DHT22;21190;58.750;17.004;2023-07-13T00:50:24;14.50;99.90
34985;DHT22;21190;58.750;17.004;2023-07-13T00:52:54;14.50;99.90
34985;DHT22;21190;58.750;17.004;2023-07-13T00:55:22;14.40;99.90
34985;DHT22;21190;58.750;17.004;2023-07-13T00:57:49;14.40;99.90
34985;DHT22;21190;58.750;17.004;2023-07-13T01:00:16;14.50;99.90
34985;DHT22;21190;58.750;17.004;2023-07-13T01:02:45;14.50;99.90
34985;DHT22;21190;58.750;17.004;2023-07-13T01:05:18;14.40;99.90
34985;DHT22;21190;58.750;17.004;2023-07-13T01:07:48;14.40;99.90
34985;DHT22;21190;58.750;17.004;2023-07-13T01:10:16;14.30;99.90
34985;DHT22;21190;58.750;17.004;2023-07-13T01:12:53;14.30;99.90
34985;DHT22;21190;58.750;17.004;2023-07-13T01:15:40;14.30;99.90
34985;DHT22;21190;58.750;17.004;2023-07-13T01:18:08;14.30;99.90
34985;DHT22;21190;58.750;17.004;2023-07-13T01:20:37;14.30;99.90
34985;DHT22;21190;58.750;17.004;2023-07-13T01:23:11;14.20;99.90
34985;DHT22;21190;58.750;17.004;2023-07-13T01:25:39;14.20;99.90
34985;DHT22;21190;58.750;17.004;2023-07-13T01:28:08;14.20;99.90
34985;DHT22;21190;58.750;17.004;2023-07-13T01:30:39;14.20;99.90
34985;DHT22;21190;58.750;17.004;2023-07-13T01:33:07;14.20;99.90
34985;DHT22;21190;58.750;17.004;2023-07-13T01:35:35;14.20;99.90
34985;DHT22;21190;58.750;17.004;2023-07-13T01:38:04;14.30;99.90
34985;DHT22;21190;58.750;17.004;2023-07-13T01:40:32;14.20;99.90
34985;DHT22;21190;58.750;17.004;2023-07-13T01:43:00;14.20;99.90
34985;DHT22;21190;58.750;17.004;2023-07-13T01:45:27;14.20;99.90
34985;DHT22;21190;58.750;17.004;2023-07-13T01:47:54;14.20;99.90
34985;DHT22;21190;58.750;17.004;2023-07-13T01:50:21;14.10;99.90
34985;DHT22;21190;58.750;17.004;2023-07-13T01:52:48;14.10;99.90
34985;DHT22;21190;58.750;17.004;2023-07-13T01:55:15;14.20;99.90
34985;DHT22;21190;58.750;17.004;2023-07-13T01:57:42;14.20;99.90
34985;DHT22;21190;58.750;17.004;2023-07-13T02:00:10;14.10;99.90
34985;DHT22;21190;58.750;17.004;2023-07-13T02:02:37;14.10;99.90
34985;DHT22;21190;58.750;17.004;2023-07-13T02:05:05;14.10;99.90
34985;DHT22;21190;58.750;17.004;2023-07-13T02:07:32;14.10;99.90
34985;DHT22;21190;58.750;17.004;2023-07-13T02:09:59;14.10;99.90
34985;DHT22;21190;58.750;17.004;2023-07-13T02:12:26;14.00;99.90
34985;DHT22;21190;58.750;17.004;2023-07-13T02:14:53;14.10;99.90
34985;DHT22;21190;58.750;17.004;2023-07-13T02:17:20;14.10;99.90
34985;DHT22;21190;58.750;17.004;2023-07-13T02:19:47;14.10;99.90
34985;DHT22;21190;58.750;17.004;2023-07-13T02:22:14;14.00;99.90
34985;DHT22;21190;58.750;17.004;2023-07-13T02:24:41;14.10;99.90
34985;DHT22;21190;58.750;17.004;2023-07-13T02:27:08;14.00;99.90
34985;DHT22;21190;58.750;17.004;2023-07-13T02:29:34;14.00;99.90
34985;DHT22;21190;58.750;17.004;2023-07-13T02:32:01;14.00;99.90
34985;DHT22;21190;58.750;17.004;2023-07-13T02:34:30;14.10;99.90
34985;DHT22;21190;58.750;17.004;2023-07-13T02:36:59;14.10;99.90
34985;DHT22;21190;58.750;17.004;2023-07-13T02:39:26;14.00;99.90
34985;DHT22;21190;58.750;17.004;2023-07-13T02:41:53;14.00;99.90
34985;DHT22;21190;58.750;17.004;2023-07-13T02:44:20;14.00;99.90
34985;DHT22;21190;58.750;17.004;2023-07-13T02:46:47;14.00;99.90
34985;DHT22;21190;58.750;17.004;2023-07-13T02:49:14;14.00;99.90
34985;DHT22;21190;58.750;17.004;2023-07-13T02:51:41;14.00;99.90
34985;DHT22;21190;58.750;17.004;2023-07-13T02:54:08;14.00;99.90
34985;DHT22;21190;58.750;17.004;2023-07-13T02:56:36;14.00;99.90
34985;DHT22;21190;58.750;17.004;2023-07-13T02:59:05;14.00;99.90
34985;DHT22;21190;58.750;17.004;2023-07-13T03:01:32;14.00;99.90
34985;DHT22;21190;58.750;17.004;2023-07-13T03:04:01;14.00;99.90
34985;DHT22;21190;58.750;17.004;2023-07-13T03:06:31;14.00;99.90
34985;DHT22;21190;58.750;17.004;2023-07-13T03:08:58;14.00;99.90
34985;DHT22;21190;58.750;17.004;2023-07-13T03:11:25;14.00;99.90
34985;DHT22;21190;58.750;17.004;2023-07-13T03:13:53;14.00;99.90
34985;DHT22;21190;58.750;17.004;2023-07-13T03:16:20;14.10;99.90
34985;DHT22;21190;58.750;17.004;2023-07-13T03:18:47;14.10;99.90
34985;DHT22;21190;58.750;17.004;2023-07-13T03:21:15;14.10;99.90
34985;DHT22;21190;58.750;17.004;2023-07-13T03:23:42;14.10;99.90
34985;DHT22;21190;58.750;17.004;2023-07-13T03:26:18;14.10;99.90
34985;DHT22;21190;58.750;17.004;2023-07-13T03:28:46;14.10;99.90
34985;DHT22;21190;58.750;17.004;2023-07-13T03:31:16;14.10;99.90
34985;DHT22;21190;58.750;17.004;2023-07-13T03:33:44;14.10;99.90
34985;DHT22;21190;58.750;17.004;2023-07-13T03:36:18;14.10;99.90
34985;DHT22;21190;58.750;17.004;2023-07-13T03:38:47;14.10;99.90
34985;DHT22;21190;58.750;17.004;2023-07-13T03:41:15;14.10;99.90
34985;DHT22;21190;58.750;17.004;2023-07-13T03:43:43;14.10;99.90
34985;DHT22;21190;58.750;17.004;2023-07-13T03:46:10;14.10;99.90
34985;DHT22;21190;58.750;17.004;2023-07-13T03:48:38;14.20;99.90
34985;DHT22;21190;58.750;17.004;2023-07-13T03:51:06;14.20;99.90
34985;DHT22;21190;58.750;17.004;2023-07-13T03:53:38;14.20;99.90
34985;DHT22;21190;58.750;17.004;2023-07-13T03:56:05;14.20;99.90
34985;DHT22;21190;58.750;17.004;2023-07-13T04:01:02;14.30;99.90
34985;DHT22;21190;58.750;17.004;2023-07-13T04:03:29;14.30;99.90
34985;DHT22;21190;58.750;17.004;2023-07-13T04:06:00;14.40;99.90
34985;DHT22;21190;58.750;17.004;2023-07-13T04:08:28;14.40;99.90
34985;DHT22;21190;58.750;17.004;2023-07-13T04:10:56;14.40;99.90
34985;DHT22;21190;58.750;17.004;2023-07-13T04:13:24;14.40;99.90
34985;DHT22;21190;58.750;17.004;2023-07-13T04:15:52;14.50;99.90
34985;DHT22;21190;58.750;17.004;2023-07-13T04:18:20;14.50;99.90
34985;DHT22;21190;58.750;17.004;2023-07-13T04:20:47;14.60;99.90
34985;DHT22;21190;58.750;17.004;2023-07-13T04:23:15;14.60;99.90
34985;DHT22;21190;58.750;17.004;2023-07-13T04:25:46;14.70;99.90
34985;DHT22;21190;58.750;17.004;2023-07-13T04:28:16;14.60;99.90
34985;DHT22;21190;58.750;17.004;2023-07-13T04:30:45;14.70;99.90
34985;DHT22;21190;58.750;17.004;2023-07-13T04:33:12;14.70;99.90
34985;DHT22;21190;58.750;17.004;2023-07-13T04:35:38;14.70;99.90
34985;DHT22;21190;58.750;17.004;2023-07-13T04:38:05;14.80;99.90
34985;DHT22;21190;58.750;17.004;2023-07-13T04:40:33;14.80;99.90
34985;DHT22;21190;58.750;17.004;2023-07-13T04:42:59;14.90;99.90
34985;DHT22;21190;58.750;17.004;2023-07-13T04:45:26;15.00;99.90
34985;DHT22;21190;58.750;17.004;2023-07-13T04:47:53;15.00;99.90
34985;DHT22;21190;58.750;17.004;2023-07-13T04:50:21;14.90;99.90
34985;DHT22;21190;58.750;17.004;2023-07-13T04:52:53;15.00;99.90
34985;DHT22;21190;58.750;17.004;2023-07-13T04:55:20;15.00;99.90
34985;DHT22;21190;58.750;17.004;2023-07-13T04:57:47;15.10;99.90
34985;DHT22;21190;58.750;17.004;2023-07-13T05:00:15;15.10;99.90
34985;DHT22;21190;58.750;17.004;2023-07-13T05:02:44;15.10;99.90
34985;DHT22;21190;58.750;17.004;2023-07-13T05:05:13;15.10;99.90
34985;DHT22;21190;58.750;17.004;2023-07-13T05:07:40;15.20;99.90
34985;DHT22;21190;58.750;17.004;2023-07-13T05:10:07;15.10;99.90
34985;DHT22;21190;58.750;17.004;2023-07-13T05:12:35;15.20;99.90
34985;DHT22;21190;58.750;17.004;2023-07-13T05:15:02;15.20;99.90
34985;DHT22;21190;58.750;17.004;2023-07-13T05:17:29;15.20;99.90
34985;DHT22;21190;58.750;17.004;2023-07-13T05:19:56;15.20;99.90
34985;DHT22;21190;58.750;17.004;2023-07-13T05:22:23;15.30;99.90
34985;DHT22;21190;58.750;17.004;2023-07-13T05:24:50;15.30;99.90
34985;DHT22;21190;58.750;17.004;2023-07-13T05:27:17;15.30;99.90
34985;DHT22;21190;58.750;17.004;2023-07-13T05:29:44;15.40;99.90
34985;DHT22;21190;58.750;17.004;2023-07-13T05:32:11;15.50;99.90
34985;DHT22;21190;58.750;17.004;2023-07-13T05:34:38;15.60;99.90
34985;DHT22;21190;58.750;17.004;2023-07-13T05:37:05;15.70;99.90
34985;DHT22;21190;58.750;17.004;2023-07-13T05:39:32;15.70;99.90
34985;DHT22;21190;58.750;17.004;2023-07-13T05:41:59;15.70;99.90
34985;DHT22;21190;58.750;17.004;2023-07-13T05:44:26;15.70;99.90
34985;DHT22;21190;58.750;17.004;2023-07-13T05:46:53;15.70;99.90
34985;DHT22;21190;58.750;17.004;2023-07-13T05:49:20;15.70;99.90
34985;DHT22;21190;58.750;17.004;2023-07-13T05:51:47;15.70;99.90
34985;DHT22;21190;58.750;17.004;2023-07-13T05:54:13;15.70;99.90
34985;DHT22;21190;58.750;17.004;2023-07-13T05:56:40;15.70;99.90
34985;DHT22;21190;58.750;17.004;2023-07-13T05:59:07;15.90;99.90
34985;DHT22;21190;58.750;17.004;2023-07-13T06:01:34;15.80;99.90
34985;DHT22;21190;58.750;17.004;2023-07-13T06:04:02;15.90;99.90
34985;DHT22;21190;58.750;17.004;2023-07-13T06:06:28;15.90;99.90
34985;DHT22;21190;58.750;17.004;2023-07-13T06:08:55;16.00;99.90
34985;DHT22;21190;58.750;17.004;2023-07-13T06:11:24;16.00;99.90
34985;DHT22;21190;58.750;17.004;2023-07-13T06:13:51;16.00;99.90
34985;DHT22;21190;58.750;17.004;2023-07-13T06:16:18;16.10;99.90
34985;DHT22;21190;58.750;17.004;2023-07-13T06:18:46;16.10;99.90
34985;DHT22;21190;58.750;17.004;2023-07-13T06:21:16;16.20;99.90
34985;DHT22;21190;58.750;17.004;2023-07-13T06:23:44;16.20;99.90
34985;DHT22;21190;58.750;17.004;2023-07-13T06:26:11;16.30;99.90
34985;DHT22;21190;58.750;17.004;2023-07-13T06:28:38;16.40;99.90
34985;DHT22;21190;58.750;17.004;2023-07-13T06:31:08;16.50;99.90
34985;DHT22;21190;58.750;17.004;2023-07-13T06:33:37;16.50;99.90
34985;DHT22;21190;58.750;17.004;2023-07-13T06:36:05;16.50;99.90
34985;DHT22;21190;58.750;17.004;2023-07-13T06:38:32;16.50;99.90
34985;DHT22;21190;58.750;17.004;2023-07-13T06:40:59;16.60;99.90
34985;DHT22;21190;58.750;17.004;2023-07-13T06:43:26;16.70;99.90
34985;DHT22;21190;58.750;17.004;2023-07-13T06:45:55;16.70;99.90
34985;DHT22;21190;58.750;17.004;2023-07-13T06:48:22;16.70;99.90
34985;DHT22;21190;58.750;17.004;2023-07-13T06:50:50;16.80;99.90
34985;DHT22;21190;58.750;17.004;2023-07-13T06:53:18;16.80;99.90
34985;DHT22;21190;58.750;17.004;2023-07-13T06:55:47;16.90;99.90
34985;DHT22;21190;58.750;17.004;2023-07-13T06:58:18;16.80;99.90
34985;DHT22;21190;58.750;17.004;2023-07-13T07:00:46;16.90;99.90
34985;DHT22;21190;58.750;17.004;2023-07-13T07:03:13;16.90;99.90
34985;DHT22;21190;58.750;17.004;2023-07-13T07:05:40;17.00;99.90
34985;DHT22;21190;58.750;17.004;2023-07-13T07:08:07;17.10;99.90
34985;DHT22;21190;58.750;17.004;2023-07-13T07:10:35;17.10;99.90
34985;DHT22;21190;58.750;17.004;2023-07-13T07:13:03;17.10;99.90
34985;DHT22;21190;58.750;17.004;2023-07-13T07:15:30;17.10;99.90
34985;DHT22;21190;58.750;17.004;2023-07-13T07:17:57;17.10;99.90
34985;DHT22;21190;58.750;17.004;2023-07-13T07:20:24;17.10;99.90
34985;DHT22;21190;58.750;17.004;2023-07-13T07:22:51;17.10;99.90
34985;DHT22;21190;58.750;17.004;2023-07-13T07:25:18;17.00;99.90
34985;DHT22;21190;58.750;17.004;2023-07-13T07:27:45;17.00;99.90
34985;DHT22;21190;58.750;17.004;2023-07-13T07:30:15;16.90;99.90
34985;DHT22;21190;58.750;17.004;2023-07-13T07:32:45;16.90;99.90
34985;DHT22;21190;58.750;17.004;2023-07-13T07:35:15;16.90;99.90
34985;DHT22;21190;58.750;17.004;2023-07-13T07:37:42;17.00;99.90
34985;DHT22;21190;58.750;17.004;2023-07-13T07:40:12;17.10;99.90
34985;DHT22;21190;58.750;17.004;2023-07-13T07:42:41;17.20;99.90
34985;DHT22;21190;58.750;17.004;2023-07-13T07:45:09;17.30;99.90
34985;DHT22;21190;58.750;17.004;2023-07-13T07:47:38;17.30;99.90
34985;DHT22;21190;58.750;17.004;2023-07-13T07:50:06;17.40;99.90
34985;DHT22;21190;58.750;17.004;2023-07-13T07:52:33;17.50;99.90
34985;DHT22;21190;58.750;17.004;2023-07-13T07:54:59;17.50;99.90
34985;DHT22;21190;58.750;17.004;2023-07-13T07:57:29;17.60;99.90
34985;DHT22;21190;58.750;17.004;2023-07-13T07:59:59;17.50;99.90
34985;DHT22;21190;58.750;17.004;2023-07-13T08:02:29;17.50;99.90
34985;DHT22;21190;58.750;17.004;2023-07-13T08:04:59;17.60;99.90
34985;DHT22;21190;58.750;17.004;2023-07-13T08:07:30;17.60;99.90
34985;DHT22;21190;58.750;17.004;2023-07-13T08:09:58;17.70;99.90
34985;DHT22;21190;58.750;17.004;2023-07-13T08:12:24;17.90;99.90
34985;DHT22;21190;58.750;17.004;2023-07-13T08:14:54;17.90;99.90
34985;DHT22;21190;58.750;17.004;2023-07-13T08:17:24;17.90;99.90
34985;DHT22;21190;58.750;17.004;2023-07-13T08:19:51;17.90;99.90
34985;DHT22;21190;58.750;17.004;2023-07-13T08:22:18;18.00;99.90
34985;DHT22;21190;58.750;17.004;2023-07-13T08:24:45;18.10;99.90
34985;DHT22;21190;58.750;17.004;2023-07-13T08:27:13;18.10;99.90
34985;DHT22;21190;58.750;17.004;2023-07-13T08:29:41;18.30;99.90
34985;DHT22;21190;58.750;17.004;2023-07-13T08:32:08;18.30;99.90
34985;DHT22;21190;58.750;17.004;2023-07-13T08:34:38;18.40;99.90
34985;DHT22;21190;58.750;17.004;2023-07-13T08:37:05;18.40;99.90
34985;DHT22;21190;58.750;17.004;2023-07-13T08:39:33;18.40;99.90
34985;DHT22;21190;58.750;17.004;2023-07-13T08:47:42;18.60;99.90
34985;DHT22;21190;58.750;17.004;2023-07-13T08:50:15;18.70;99.90
34985;DHT22;21190;58.750;17.004;2023-07-13T08:52:44;18.80;99.90
34985;DHT22;21190;58.750;17.004;2023-07-13T08:55:22;18.90;99.90
34985;DHT22;21190;58.750;17.004;2023-07-13T08:57:59;18.90;99.90
34985;DHT22;21190;58.750;17.004;2023-07-13T09:01:09;18.90;99.90
34985;DHT22;21190;58.750;17.004;2023-07-13T09:03:31;18.90;99.90
34985;DHT22;21190;58.750;17.004;2023-07-13T09:06:03;18.90;99.90
34985;DHT22;21190;58.750;17.004;2023-07-13T09:08:58;19.00;99.90
34985;DHT22;21190;58.750;17.004;2023-07-13T09:11:37;19.10;99.90
34985;DHT22;21190;58.750;17.004;2023-07-13T09:16:51;19.00;99.90
34985;DHT22;21190;58.750;17.004;2023-07-13T09:19:23;19.00;99.90
34985;DHT22;21190;58.750;17.004;2023-07-13T09:21:53;18.90;99.90
34985;DHT22;21190;58.750;17.004;2023-07-13T09:27:15;19.10;99.90
34985;DHT22;21190;58.750;17.004;2023-07-13T09:29:52;19.10;99.90
34985;DHT22;21190;58.750;17.004;2023-07-13T09:32:23;19.10;99.90
34985;DHT22;21190;58.750;17.004;2023-07-13T09:34:55;19.10;99.90
34985;DHT22;21190;58.750;17.004;2023-07-13T09:37:27;19.20;99.90
34985;DHT22;21190;58.750;17.004;2023-07-13T09:39:56;19.20;99.90
34985;DHT22;21190;58.750;17.004;2023-07-13T09:42:23;19.30;99.90
34985;DHT22;21190;58.750;17.004;2023-07-13T09:44:55;19.40;99.90
34985;DHT22;21190;58.750;17.004;2023-07-13T09:47:27;19.40;99.90
34985;DHT22;21190;58.750;17.004;2023-07-13T09:50:03;19.40;99.90
34985;DHT22;21190;58.750;17.004;2023-07-13T09:52:50;19.60;99.90
34985;DHT22;21190;58.750;17.004;2023-07-13T09:55:26;19.70;99.90
34985;DHT22;21190;58.750;17.004;2023-07-13T09:57:53;19.80;99.90
34985;DHT22;21190;58.750;17.004;2023-07-13T10:00:27;19.80;99.90
34985;DHT22;21190;58.750;17.004;2023-07-13T10:03:17;19.80;99.90
34985;DHT22;21190;58.750;17.004;2023-07-13T10:05:46;19.80;99.90
34985;DHT22;21190;58.750;17.004;2023-07-13T10:08:26;19.90;99.90
34985;DHT22;21190;58.750;17.004;2023-07-13T10:11:09;19.90;99.90
34985;DHT22;21190;58.750;17.004;2023-07-13T10:13:54;19.90;99.90
34985;DHT22;21190;58.750;17.004;2023-07-13T10:16:32;19.90;99.90
34985;DHT22;21190;58.750;17.004;2023-07-13T10:21:52;19.90;99.90
34985;DHT22;21190;58.750;17.004;2023-07-13T10:24:29;20.00;99.90
34985;DHT22;21190;58.750;17.004;2023-07-13T10:27:20;20.00;99.90
34985;DHT22;21190;58.750;17.004;2023-07-13T10:32:42;20.00;99.90
34985;DHT22;21190;58.750;17.004;2023-07-13T10:35:14;20.10;99.90
34985;DHT22;21190;58.750;17.004;2023-07-13T10:40:25;20.20;99.90
34985;DHT22;21190;58.750;17.004;2023-07-13T10:42:57;20.20;99.90
34985;DHT22;21190;58.750;17.004;2023-07-13T10:45:27;20.20;99.90
34985;DHT22;21190;58.750;17.004;2023-07-13T10:47:55;20.30;99.90
34985;DHT22;21190;58.750;17.004;2023-07-13T10:50:25;20.30;99.90
34985;DHT22;21190;58.750;17.004;2023-07-13T10:52:55;20.20;99.90
34985;DHT22;21190;58.750;17.004;2023-07-13T11:03:55;20.10;99.90
34985;DHT22;21190;58.750;17.004;2023-07-13T11:06:36;20.10;99.90
34985;DHT22;21190;58.750;17.004;2023-07-13T11:13:27;20.10;99.90
34985;DHT22;21190;58.750;17.004;2023-07-13T11:15:13;20.30;99.90
34985;DHT22;21190;58.750;17.004;2023-07-13T11:17:49;20.60;99.90
34985;DHT22;21190;58.750;17.004;2023-07-13T11:22:50;20.60;99.90
34985;DHT22;21190;58.750;17.004;2023-07-13T11:30:42;20.70;99.90
34985;DHT22;21190;58.750;17.004;2023-07-13T11:33:22;20.80;99.90
34985;DHT22;21190;58.750;17.004;2023-07-13T11:38:44;20.80;99.90
34985;DHT22;21190;58.750;17.004;2023-07-13T11:43:43;21.00;99.90
34985;DHT22;21190;58.750;17.004;2023-07-13T11:46:15;21.10;99.90
34985;DHT22;21190;58.750;17.004;2023-07-13T11:48:44;21.20;99.90
34985;DHT22;21190;58.750;17.004;2023-07-13T11:51:23;21.30;99.90
34985;DHT22;21190;58.750;17.004;2023-07-13T11:53:54;21.40;99.90
34985;DHT22;21190;58.750;17.004;2023-07-13T11:56:24;21.50;99.90
34985;DHT22;21190;58.750;17.004;2023-07-13T11:58:55;21.60;99.90
34985;DHT22;21190;58.750;17.004;2023-07-13T12:01:28;21.70;99.90
34985;DHT22;21190;58.750;17.004;2023-07-13T12:04:04;21.80;99.90
34985;DHT22;21190;58.750;17.004;2023-07-13T12:06:35;21.80;99.90
34985;DHT22;21190;58.750;17.004;2023-07-13T12:09:12;21.90;99.90
34985;DHT22;21190;58.750;17.004;2023-07-13T12:11:44;21.80;99.90
34985;DHT22;21190;58.750;17.004;2023-07-13T12:14:14;21.90;99.90
34985;DHT22;21190;58.750;17.004;2023-07-13T12:16:43;21.90;99.90
34985;DHT22;21190;58.750;17.004;2023-07-13T12:19:27;21.80;99.90
34985;DHT22;21190;58.750;17.004;2023-07-13T12:21:56;21.80;99.90
34985;DHT22;21190;58.750;17.004;2023-07-13T12:24:25;21.70;99.90
34985;DHT22;21190;58.750;17.004;2023-07-13T12:27:04;21.70;99.90
34985;DHT22;21190;58.750;17.004;2023-07-13T12:29:32;21.70;99.90
34985;DHT22;21190;58.750;17.004;2023-07-13T12:31:59;21.80;99.90
34985;DHT22;21190;58.750;17.004;2023-07-13T12:34:27;21.90;99.90
34985;DHT22;21190;58.750;17.004;2023-07-13T12:36:59;22.00;99.90
34985;DHT22;21190;58.750;17.004;2023-07-13T12:42:22;21.90;99.90
34985;DHT22;21190;58.750;17.004;2023-07-13T12:45:01;21.90;99.90
34985;DHT22;21190;58.750;17.004;2023-07-13T12:47:29;21.90;99.90
34985;DHT22;21190;58.750;17.004;2023-07-13T12:49:59;21.90;99.90
34985;DHT22;21190;58.750;17.004;2023-07-13T12:52:30;22.00;99.90
34985;DHT22;21190;58.750;17.004;2023-07-13T12:55:07;22.00;99.90
34985;DHT22;21190;58.750;17.004;2023-07-13T13:00:40;22.00;99.90
34985;DHT22;21190;58.750;17.004;2023-07-13T13:03:11;21.90;99.90
34985;DHT22;21190;58.750;17.004;2023-07-13T13:06:00;21.90;99.90
34985;DHT22;21190;58.750;17.004;2023-07-13T13:08:31;21.90;99.90
34985;DHT22;21190;58.750;17.004;2023-07-13T13:10:58;21.90;99.90
34985;DHT22;21190;58.750;17.004;2023-07-13T13:13:25;22.00;99.90
34985;DHT22;21190;58.750;17.004;2023-07-13T13:15:52;22.00;99.90
34985;DHT22;21190;58.750;17.004;2023-07-13T13:18:22;22.20;99.90
34985;DHT22;21190;58.750;17.004;2023-07-13T13:20:50;22.40;99.90
34985;DHT22;21190;58.750;17.004;2023-07-13T13:23:19;22.40;99.90
34985;DHT22;21190;58.750;17.004;2023-07-13T13:25:49;22.50;99.90
34985;DHT22;21190;58.750;17.004;2023-07-13T13:28:19;22.50;99.90
34985;DHT22;21190;58.750;17.004;2023-07-13T13:30:49;22.50;99.90
34985;DHT22;21190;58.750;17.004;2023-07-13T13:33:18;22.60;99.90
34985;DHT22;21190;58.750;17.004;2023-07-13T13:35:46;22.80;99.90
34985;DHT22;21190;58.750;17.004;2023-07-13T13:38:18;22.90;99.90
34985;DHT22;21190;58.750;17.004;2023-07-13T13:40:46;23.00;99.90
34985;DHT22;21190;58.750;17.004;2023-07-13T13:43:16;23.00;99.90
34985;DHT22;21190;58.750;17.004;2023-07-13T13:45:45;23.10;99.90
34985;DHT22;21190;58.750;17.004;2023-07-13T13:48:21;23.00;99.90
34985;DHT22;21190;58.750;17.004;2023-07-13T13:50:57;22.90;99.90
34985;DHT22;21190;58.750;17.004;2023-07-13T13:53:24;22.80;99.90
34985;DHT22;21190;58.750;17.004;2023-07-13T13:55:51;22.80;99.90
34985;DHT22;21190;58.750;17.004;2023-07-13T13:58:19;22.90;99.90
34985;DHT22;21190;58.750;17.004;2023-07-13T14:00:47;22.70;99.90
34985;DHT22;21190;58.750;17.004;2023-07-13T14:03:17;22.70;99.90
34985;DHT22;21190;58.750;17.004;2023-07-13T14:05:45;22.70;99.90
34985;DHT22;21190;58.750;17.004;2023-07-13T14:08:18;22.60;99.90
34985;DHT22;21190;58.750;17.004;2023-07-13T14:10:53;22.70;99.90
34985;DHT22;21190;58.750;17.004;2023-07-13T14:13:25;22.80;99.90
34985;DHT22;21190;58.750;17.004;2023-07-13T14:15:54;22.90;99.90
34985;DHT22;21190;58.750;17.004;2023-07-13T14:18:21;22.90;99.90
34985;DHT22;21190;58.750;17.004;2023-07-13T14:20:48;22.90;99.90
34985;DHT22;21190;58.750;17.004;2023-07-13T14:23:16;22.70;99.90
34985;DHT22;21190;58.750;17.004;2023-07-13T14:25:48;22.60;99.90
34985;DHT22;21190;58.750;17.004;2023-07-13T14:30:49;22.60;99.90
34985;DHT22;21190;58.750;17.004;2023-07-13T14:33:17;22.60;99.90
34985;DHT22;21190;58.750;17.004;2023-07-13T14:35:44;22.60;99.90
34985;DHT22;21190;58.750;17.004;2023-07-13T14:38:17;22.60;99.90
34985;DHT22;21190;58.750;17.004;2023-07-13T14:40:45;22.50;99.90
34985;DHT22;21190;58.750;17.004;2023-07-13T14:43:13;22.50;99.90
34985;DHT22;21190;58.750;17.004;2023-07-13T14:45:46;22.50;99.90
34985;DHT22;21190;58.750;17.004;2023-07-13T14:50:44;22.60;99.90
34985;DHT22;21190;58.750;17.004;2023-07-13T14:53:11;22.60;99.90
34985;DHT22;21190;58.750;17.004;2023-07-13T14:55:39;22.70;99.90
34985;DHT22;21190;58.750;17.004;2023-07-13T14:58:06;22.60;99.90
34985;DHT22;21190;58.750;17.004;2023-07-13T15:00:33;22.60;99.90
34985;DHT22;21190;58.750;17.004;2023-07-13T15:03:01;22.50;99.90
34985;DHT22;21190;58.750;17.004;2023-07-13T15:05:30;22.50;99.90
34985;DHT22;21190;58.750;17.004;2023-07-13T15:08:00;22.40;99.90
34985;DHT22;21190;58.750;17.004;2023-07-13T15:10:32;22.40;99.90
34985;DHT22;21190;58.750;17.004;2023-07-13T15:13:17;22.30;99.90
34985;DHT22;21190;58.750;17.004;2023-07-13T15:15:49;22.20;99.90
34985;DHT22;21190;58.750;17.004;2023-07-13T15:18:20;22.10;99.90
34985;DHT22;21190;58.750;17.004;2023-07-13T15:20:49;21.90;99.90
34985;DHT22;21190;58.750;17.004;2023-07-13T15:23:17;21.60;99.90
34985;DHT22;21190;58.750;17.004;2023-07-13T15:25:45;21.20;99.90
34985;DHT22;21190;58.750;17.004;2023-07-13T15:28:12;20.80;99.90
34985;DHT22;21190;58.750;17.004;2023-07-13T15:30:45;20.50;99.90
34985;DHT22;21190;58.750;17.004;2023-07-13T15:33:26;20.20;99.90
34985;DHT22;21190;58.750;17.004;2023-07-13T15:35:54;19.90;99.90
34985;DHT22;21190;58.750;17.004;2023-07-13T15:38:25;20.00;99.90
34985;DHT22;21190;58.750;17.004;2023-07-13T15:40:53;20.00;99.90
34985;DHT22;21190;58.750;17.004;2023-07-13T15:43:20;20.20;99.90
34985;DHT22;21190;58.750;17.004;2023-07-13T15:45:47;20.40;99.90
34985;DHT22;21190;58.750;17.004;2023-07-13T15:48:20;20.40;99.90
34985;DHT22;21190;58.750;17.004;2023-07-13T15:50:55;20.50;99.90
34985;DHT22;21190;58.750;17.004;2023-07-13T15:53:34;20.60;99.90
34985;DHT22;21190;58.750;17.004;2023-07-13T15:56:18;20.60;99.90
34985;DHT22;21190;58.750;17.004;2023-07-13T15:58:46;20.60;99.90
34985;DHT22;21190;58.750;17.004;2023-07-13T16:01:13;20.60;99.90
34985;DHT22;21190;58.750;17.004;2023-07-13T16:03:40;20.60;99.90
34985;DHT22;21190;58.750;17.004;2023-07-13T16:06:14;20.70;99.90
34985;DHT22;21190;58.750;17.004;2023-07-13T16:08:43;20.70;99.90
34985;DHT22;21190;58.750;17.004;2023-07-13T16:11:23;20.70;99.90
34985;DHT22;21190;58.750;17.004;2023-07-13T16:13:51;20.70;99.90
34985;DHT22;21190;58.750;17.004;2023-07-13T16:16:33;20.80;99.90
34985;DHT22;21190;58.750;17.004;2023-07-13T16:19:05;20.80;99.90
34985;DHT22;21190;58.750;17.004;2023-07-13T16:21:37;20.80;99.90
34985;DHT22;21190;58.750;17.004;2023-07-13T16:24:08;20.70;99.90
34985;DHT22;21190;58.750;17.004;2023-07-13T16:26:41;20.60;99.90
34985;DHT22;21190;58.750;17.004;2023-07-13T16:29:19;20.60;99.90
34985;DHT22;21190;58.750;17.004;2023-07-13T16:32:03;20.50;99.90